Estación Meteorológica Peña el Pijo (Robertgarden) [ 01/30/23 14:02:31 CET ]

Fecha Hora Presion(HPa) Temp (°C) Humedad % Rocio (°C) Viento ( m/s) Direccion Lluvia 1Hora(mm) Lluvia 24H(mm) LLuvia Total(mm)
2010-May-23 01:01:14 1012.000 9.8 74 5.4         113.96
2010-May-23 02:01:16 1011.800 8.6 77 4.8         113.96
2010-May-23 03:05:14 1011.400 7.9 80 4.7         113.96
2010-May-23 04:01:19 1011.300 7.6 81 4.6         113.96
2010-May-23 05:01:13 1011.000 7.0 83 4.3         113.96
2010-May-23 06:01:12 1010.600 6.8 84 4.3         113.96
2010-May-23 07:01:18 1010.900 7.1 84 4.6         113.96
2010-May-23 08:01:13 1011.100 8.4 83 5.7         113.96
2010-May-23 09:01:12 1011.400 10.7 77 6.8         113.96
2010-May-23 10:01:17 1011.500 15.1 61 7.6         113.96
2010-May-23 11:01:16 1011.600 18.5 49 7.6         113.96
2010-May-23 12:01:16 1011.400 18.4 50 7.8         113.96
2010-May-23 13:01:14 1011.400 18.4 49 7.5         113.96
2010-May-23 14:01:13 1011.400 17.9 51 7.6         113.96
2010-May-23 15:01:16 1011.200 19.8 39 5.4         113.96
2010-May-23 16:01:16 1010.600 23.5 32 5.8         113.96
2010-May-23 17:01:14 1010.400 24.9 30 6.2         113.96
2010-May-23 18:01:13 1009.900 23.9 32 6.2         113.96
2010-May-23 19:01:13 1009.800 23.5 30 5.0         113.96
2010-May-23 20:01:12 1009.900 20.1 36 4.5         113.96
2010-May-23 21:01:19 1010.500 17.2 42 4.1         113.96
2010-May-23 22:01:10 1011.800 16.7 42 3.7         113.96
2010-May-23 23:01:20 1012.800 12.8 63 5.9         113.96

Temperatura Máxima:24°    Temperatura Mínima:
Presión Máxima:1012.800 Hpa    Presión Mínima:1009.800 Hpa


Volver